createdAt,value
2024-05-09T00:00:40.870Z,10.42
2024-05-09T00:03:10.597Z,10.50
2024-05-09T00:05:41.137Z,10.52
2024-05-09T00:08:10.041Z,10.45
2024-05-09T00:10:39.388Z,10.40
2024-05-09T00:13:08.435Z,10.47
2024-05-09T00:15:36.865Z,10.47
2024-05-09T00:18:05.683Z,10.40
2024-05-09T00:20:38.755Z,10.40
2024-05-09T00:23:12.739Z,10.44
2024-05-09T00:25:43.247Z,10.39
2024-05-09T00:28:11.882Z,10.37
2024-05-09T00:30:39.049Z,10.31
2024-05-09T00:33:07.616Z,10.35
2024-05-09T00:35:36.301Z,10.29
2024-05-09T00:38:04.498Z,10.33
2024-05-09T00:40:40.035Z,10.31
2024-05-09T00:43:10.590Z,10.23
2024-05-09T00:45:38.054Z,10.15
2024-05-09T00:48:08.372Z,10.14
2024-05-09T00:50:40.500Z,10.08
2024-05-09T00:53:10.440Z,10.10
2024-05-09T00:55:39.108Z,10.06
2024-05-09T00:58:09.553Z,9.99
2024-05-09T01:00:39.999Z,9.97
2024-05-09T01:03:10.643Z,9.93
2024-05-09T01:05:40.255Z,9.76
2024-05-09T01:08:09.024Z,9.73
2024-05-09T01:10:37.418Z,9.72
2024-05-09T01:13:05.553Z,9.72
2024-05-09T01:15:33.802Z,9.63
2024-05-09T01:18:04.327Z,9.51
2024-05-09T01:20:40.823Z,9.60
2024-05-09T01:23:11.876Z,9.58
2024-05-09T01:25:39.748Z,9.52
2024-05-09T01:28:07.334Z,9.53
2024-05-09T01:30:36.991Z,9.59
2024-05-09T01:33:08.130Z,9.54
2024-05-09T01:35:37.461Z,9.52
2024-05-09T01:38:05.403Z,9.52
2024-05-09T01:40:37.607Z,9.52
2024-05-09T01:43:08.432Z,9.44
2024-05-09T01:45:36.694Z,9.44
2024-05-09T01:48:04.366Z,9.45
2024-05-09T01:53:01.993Z,9.44
2024-05-09T01:55:29.301Z,9.40
2024-05-09T01:57:56.673Z,9.38
2024-05-09T02:00:36.425Z,9.36
2024-05-09T02:03:14.407Z,9.29
2024-05-09T02:05:48.123Z,9.30
2024-05-09T02:08:19.709Z,9.31
2024-05-09T02:10:48.325Z,9.28
2024-05-09T02:13:16.567Z,9.22
2024-05-09T02:15:44.268Z,9.22
2024-05-09T02:18:14.308Z,9.15
2024-05-09T02:20:42.800Z,9.15
2024-05-09T02:23:10.772Z,9.05
2024-05-09T02:25:37.991Z,9.08
2024-05-09T02:28:05.464Z,9.08
2024-05-09T02:30:40.135Z,9.08
2024-05-09T02:33:12.187Z,8.97
2024-05-09T02:35:41.796Z,9.01
2024-05-09T02:38:13.091Z,8.89
2024-05-09T02:40:40.991Z,8.95
2024-05-09T02:43:10.397Z,8.90
2024-05-09T02:45:41.582Z,8.92
2024-05-09T02:48:13.509Z,8.91
2024-05-09T02:50:41.602Z,8.89
2024-05-09T02:53:09.890Z,8.88
2024-05-09T02:55:41.911Z,8.85
2024-05-09T02:58:09.766Z,8.81
2024-05-09T03:00:40.599Z,8.82
2024-05-09T03:03:13.128Z,8.77
2024-05-09T03:05:43.140Z,8.73
2024-05-09T03:08:10.597Z,8.72
2024-05-09T03:10:39.232Z,8.72
2024-05-09T03:13:13.233Z,8.63
2024-05-09T03:15:42.013Z,8.73
2024-05-09T03:18:09.595Z,8.72
2024-05-09T03:20:38.210Z,8.69
2024-05-09T03:23:08.465Z,8.64
2024-05-09T03:25:36.521Z,8.62
2024-05-09T03:28:03.873Z,8.64
2024-05-09T03:30:39.742Z,8.60
2024-05-09T03:33:20.533Z,8.60
2024-05-09T03:35:49.405Z,8.60
2024-05-09T03:38:17.217Z,8.57
2024-05-09T03:40:49.529Z,8.54
2024-05-09T03:43:17.784Z,8.56
2024-05-09T03:45:45.972Z,8.61
2024-05-09T03:48:13.714Z,8.57
2024-05-09T03:50:41.760Z,8.57
2024-05-09T03:53:14.100Z,8.55
2024-05-09T03:55:41.515Z,8.56
2024-05-09T03:58:08.889Z,8.57
2024-05-09T04:00:39.301Z,8.58
2024-05-09T04:03:10.758Z,8.51
2024-05-09T04:05:41.748Z,8.50
2024-05-09T04:08:10.702Z,8.49
2024-05-09T04:10:38.248Z,8.50
2024-05-09T04:13:05.652Z,8.50
2024-05-09T04:15:33.123Z,8.47
2024-05-09T04:18:01.134Z,8.59
2024-05-09T04:20:36.861Z,8.57
2024-05-09T04:23:08.371Z,8.66
2024-05-09T04:25:36.551Z,8.71
2024-05-09T04:28:04.144Z,8.76
2024-05-09T04:30:37.867Z,8.82
2024-05-09T04:33:09.562Z,8.84
2024-05-09T04:35:39.209Z,8.91
2024-05-09T04:38:06.828Z,8.96
2024-05-09T04:40:36.595Z,8.89
2024-05-09T04:43:06.623Z,8.90
2024-05-09T04:45:34.239Z,8.83
2024-05-09T04:48:02.427Z,8.85
2024-05-09T04:50:36.575Z,8.75
2024-05-09T04:53:08.364Z,8.73
2024-05-09T04:55:37.359Z,8.82
2024-05-09T04:58:05.629Z,8.81
2024-05-09T05:00:37.127Z,8.83
2024-05-09T05:03:08.370Z,8.83
2024-05-09T05:05:43.574Z,8.98
2024-05-09T05:08:17.430Z,9.11
2024-05-09T05:10:46.040Z,9.11
2024-05-09T05:13:20.645Z,9.04
2024-05-09T05:15:57.501Z,9.03
2024-05-09T05:18:27.527Z,9.18
2024-05-09T05:20:58.749Z,9.23
2024-05-09T05:23:26.417Z,9.35
2024-05-09T05:25:54.348Z,9.39
2024-05-09T05:28:22.173Z,9.53
2024-05-09T05:30:50.186Z,9.55
2024-05-09T05:33:22.326Z,9.64
2024-05-09T05:35:50.176Z,9.75
2024-05-09T05:38:17.457Z,9.85
2024-05-09T05:40:44.772Z,9.92
2024-05-09T05:43:18.965Z,9.94
2024-05-09T05:45:46.890Z,10.03
2024-05-09T05:48:18.175Z,10.18
2024-05-09T05:50:46.250Z,10.26
2024-05-09T05:53:13.769Z,10.39
2024-05-09T05:55:41.749Z,10.47
2024-05-09T05:58:10.543Z,10.46
2024-05-09T06:00:39.891Z,10.45
2024-05-09T06:03:09.633Z,10.42
2024-05-09T06:05:40.438Z,10.66
2024-05-09T06:08:08.565Z,10.59
2024-05-09T06:10:39.413Z,10.58
2024-05-09T06:13:11.284Z,10.78
2024-05-09T06:15:39.844Z,10.93
2024-05-09T06:18:08.866Z,11.07
2024-05-09T06:20:38.173Z,11.18
2024-05-09T06:23:10.037Z,11.31
2024-05-09T06:25:38.160Z,11.44
2024-05-09T06:28:05.996Z,11.49
2024-05-09T06:33:03.776Z,11.84
2024-05-09T06:35:31.517Z,11.85
2024-05-09T06:37:58.976Z,12.03
2024-05-09T06:40:35.886Z,12.14
2024-05-09T06:43:05.989Z,12.22
2024-05-09T06:45:33.143Z,12.27
2024-05-09T06:48:00.758Z,12.47
2024-05-09T06:50:35.624Z,12.66
2024-05-09T06:53:05.642Z,12.76
2024-05-09T06:55:36.252Z,12.88
2024-05-09T06:58:06.507Z,13.05
2024-05-09T07:00:38.751Z,13.09
2024-05-09T07:03:14.986Z,13.17
2024-05-09T07:05:44.972Z,13.29
2024-05-09T07:08:12.628Z,13.35
2024-05-09T07:10:40.369Z,13.47
2024-05-09T07:13:12.036Z,13.68
2024-05-09T07:15:39.597Z,13.88
2024-05-09T07:18:18.382Z,13.90
2024-05-09T07:20:47.522Z,13.95
2024-05-09T07:23:16.091Z,13.96
2024-05-09T07:25:43.832Z,14.02
2024-05-09T07:28:16.180Z,14.26
2024-05-09T07:30:43.872Z,14.35
2024-05-09T07:33:18.584Z,14.42
2024-05-09T07:35:46.486Z,14.51
2024-05-09T07:38:14.112Z,14.60
2024-05-09T07:40:42.000Z,14.73
2024-05-09T07:43:16.507Z,14.79
2024-05-09T07:45:51.949Z,14.84
2024-05-09T07:52:39.197Z,14.96
2024-05-09T07:53:47.670Z,15.08
2024-05-09T07:56:21.616Z,15.12
2024-05-09T07:58:51.536Z,15.16
2024-05-09T08:01:19.473Z,15.26
2024-05-09T08:03:47.195Z,15.40
2024-05-09T08:06:15.352Z,15.51
2024-05-09T08:08:42.785Z,15.57
2024-05-09T08:11:10.073Z,15.70
2024-05-09T08:13:37.568Z,15.81
2024-05-09T08:16:05.275Z,15.92
2024-05-09T08:18:32.777Z,16.05
2024-05-09T08:21:00.336Z,16.08
2024-05-09T08:23:28.742Z,16.11
2024-05-09T08:25:56.073Z,16.12
2024-05-09T08:28:23.268Z,16.25
2024-05-09T08:30:50.819Z,16.37
2024-05-09T08:33:18.327Z,16.40
2024-05-09T08:35:45.922Z,16.43
2024-05-09T08:38:13.194Z,16.55
2024-05-09T08:40:42.039Z,16.59
2024-05-09T08:43:12.014Z,16.73
2024-05-09T08:45:45.355Z,16.78
2024-05-09T08:48:15.746Z,16.84
2024-05-09T08:50:44.913Z,16.83
2024-05-09T08:53:14.564Z,16.85
2024-05-09T08:55:43.674Z,16.88
2024-05-09T08:58:17.266Z,16.68
2024-05-09T09:00:46.378Z,16.91
2024-05-09T09:03:19.936Z,17.18
2024-05-09T09:05:58.182Z,17.07
2024-05-09T09:08:26.652Z,17.23
2024-05-09T09:10:56.959Z,17.29
2024-05-09T09:13:24.328Z,17.37
2024-05-09T09:15:52.117Z,17.45
2024-05-09T09:18:19.711Z,17.49
2024-05-09T09:20:47.116Z,17.55
2024-05-09T09:23:14.493Z,17.55
2024-05-09T09:25:41.757Z,17.58
2024-05-09T09:28:09.683Z,17.67
2024-05-09T09:30:41.290Z,17.73
2024-05-09T09:33:09.372Z,17.63
2024-05-09T09:35:37.145Z,17.84
2024-05-09T09:38:05.945Z,18.15
2024-05-09T09:40:42.888Z,18.14
2024-05-09T09:43:22.628Z,17.78
2024-05-09T09:45:51.825Z,17.94
2024-05-09T09:48:22.195Z,18.25
2024-05-09T09:50:52.260Z,18.36
2024-05-09T09:53:23.835Z,18.54
2024-05-09T09:55:51.939Z,18.55
2024-05-09T09:58:19.712Z,18.69
2024-05-09T10:00:47.497Z,18.67
2024-05-09T10:03:15.010Z,18.70
2024-05-09T10:05:45.286Z,18.85
2024-05-09T10:08:16.340Z,18.95
2024-05-09T10:10:48.000Z,19.02
2024-05-09T10:13:16.294Z,19.22
2024-05-09T10:15:48.594Z,19.41
2024-05-09T10:18:16.130Z,19.48
2024-05-09T10:20:47.046Z,19.76
2024-05-09T10:23:26.347Z,20.13
2024-05-09T10:26:00.615Z,20.46
2024-05-09T10:28:28.962Z,20.49
2024-05-09T10:31:13.944Z,21.20
2024-05-09T10:33:53.010Z,21.70
2024-05-09T10:36:27.252Z,21.96
2024-05-09T10:38:55.772Z,21.95
2024-05-09T10:41:23.919Z,22.20
2024-05-09T10:43:51.559Z,22.53
2024-05-09T10:46:19.831Z,22.72
2024-05-09T10:48:48.615Z,22.71
2024-05-09T10:51:17.690Z,22.19
2024-05-09T10:53:47.106Z,22.44
2024-05-09T10:56:15.490Z,22.60
2024-05-09T10:58:42.856Z,23.08
2024-05-09T11:01:12.050Z,23.04
2024-05-09T11:03:39.935Z,23.10
2024-05-09T11:06:08.209Z,22.78
2024-05-09T11:08:36.591Z,23.15
2024-05-09T11:11:07.762Z,23.61
2024-05-09T11:13:37.310Z,24.18
2024-05-09T11:16:06.939Z,24.57
2024-05-09T11:18:38.201Z,24.84
2024-05-09T11:21:13.913Z,24.79
2024-05-09T11:23:41.672Z,25.11
2024-05-09T11:26:10.440Z,25.30
2024-05-09T11:28:37.653Z,25.35
2024-05-09T11:31:07.899Z,25.52
2024-05-09T11:33:40.030Z,25.40
2024-05-09T11:36:08.853Z,25.71
2024-05-09T11:38:36.331Z,25.31
2024-05-09T11:41:04.196Z,25.56
2024-05-09T11:43:31.703Z,25.80
2024-05-09T11:45:59.189Z,25.44
2024-05-09T11:48:26.950Z,25.89
2024-05-09T11:50:55.769Z,25.55
2024-05-09T11:53:23.253Z,25.76
2024-05-09T11:55:50.593Z,25.69
2024-05-09T11:58:19.222Z,25.59
2024-05-09T12:00:47.363Z,25.66
2024-05-09T12:03:15.098Z,25.79
2024-05-09T12:05:42.568Z,26.48
2024-05-09T12:08:10.146Z,25.57
2024-05-09T12:10:37.781Z,26.04
2024-05-09T12:13:06.897Z,26.14
2024-05-09T12:15:38.093Z,25.87
2024-05-09T12:18:06.977Z,25.78
2024-05-09T12:20:39.047Z,26.03
2024-05-09T12:23:09.897Z,26.09
2024-05-09T12:25:38.923Z,26.22
2024-05-09T12:28:07.061Z,25.80
2024-05-09T12:30:38.474Z,25.79
2024-05-09T12:33:12.746Z,26.10
2024-05-09T12:35:42.716Z,26.53
2024-05-09T12:38:11.930Z,26.64
2024-05-09T12:40:39.602Z,26.75
2024-05-09T12:43:08.494Z,27.24
2024-05-09T12:45:37.255Z,27.19
2024-05-09T12:48:07.523Z,26.65
2024-05-09T12:50:35.444Z,27.41
2024-05-09T12:53:04.226Z,28.26
2024-05-09T12:55:40.550Z,28.39
2024-05-09T12:58:19.234Z,28.49
2024-05-09T13:00:47.148Z,28.36
2024-05-09T13:03:15.141Z,28.43
2024-05-09T13:05:44.818Z,29.04
2024-05-09T13:08:13.149Z,29.28
2024-05-09T13:10:40.659Z,28.64
2024-05-09T13:13:10.406Z,27.51
2024-05-09T13:15:37.792Z,27.42
2024-05-09T13:18:06.357Z,27.35
2024-05-09T13:20:35.710Z,28.06
2024-05-09T13:23:08.423Z,27.60
2024-05-09T13:25:37.749Z,27.86
2024-05-09T13:28:06.837Z,28.22
2024-05-09T13:30:39.614Z,28.25
2024-05-09T13:33:11.253Z,27.88
2024-05-09T13:35:40.683Z,27.35
2024-05-09T13:38:08.528Z,27.38
2024-05-09T13:40:36.600Z,27.19
2024-05-09T13:43:05.350Z,28.54
2024-05-09T13:45:33.533Z,29.39
2024-05-09T13:48:02.547Z,28.91
2024-05-09T13:50:34.837Z,28.67
2024-05-09T13:53:06.284Z,28.84
2024-05-09T13:55:35.605Z,27.61
2024-05-09T13:58:03.508Z,28.01
2024-05-09T14:00:42.634Z,28.81
2024-05-09T14:03:15.918Z,29.48
2024-05-09T14:05:43.896Z,28.98
2024-05-09T14:08:12.125Z,28.57
2024-05-09T14:10:44.536Z,28.31
2024-05-09T14:13:13.135Z,28.58
2024-05-09T14:15:40.680Z,29.42
2024-05-09T14:18:12.394Z,29.06
2024-05-09T14:20:41.319Z,27.98
2024-05-09T14:23:08.548Z,28.72
2024-05-09T14:25:39.050Z,29.20
2024-05-09T14:28:09.599Z,29.36
2024-05-09T14:30:38.494Z,29.12
2024-05-09T14:33:08.003Z,28.80
2024-05-09T14:35:37.960Z,28.38
2024-05-09T14:38:07.580Z,27.75
2024-05-09T14:40:41.008Z,27.90
2024-05-09T14:43:14.989Z,28.01
2024-05-09T14:45:43.470Z,27.63
2024-05-09T14:48:12.136Z,27.25
2024-05-09T14:50:40.777Z,27.48
2024-05-09T14:53:10.750Z,27.89
2024-05-09T14:55:40.424Z,28.23
2024-05-09T14:58:13.366Z,28.12
2024-05-09T15:00:46.721Z,28.11
2024-05-09T15:03:22.165Z,28.45
2024-05-09T15:05:51.154Z,28.47
2024-05-09T15:08:19.555Z,28.36
2024-05-09T15:10:47.340Z,28.52
2024-05-09T15:13:16.759Z,28.19
2024-05-09T15:15:44.701Z,28.14
2024-05-09T15:18:12.288Z,27.38
2024-05-09T15:20:40.868Z,27.36
2024-05-09T15:23:08.379Z,27.35
2024-05-09T15:25:36.748Z,27.73
2024-05-09T15:28:07.628Z,27.08
2024-05-09T15:30:35.394Z,27.48
2024-05-09T15:33:07.164Z,28.18
2024-05-09T15:35:36.243Z,28.86
2024-05-09T15:38:04.393Z,28.70
2024-05-09T15:40:38.890Z,28.41
2024-05-09T15:43:10.174Z,28.17
2024-05-09T15:45:39.824Z,28.62
2024-05-09T15:48:09.049Z,28.19
2024-05-09T15:50:40.695Z,28.58
2024-05-09T15:53:10.963Z,28.35
2024-05-09T15:55:39.125Z,28.66
2024-05-09T15:58:07.256Z,28.88
2024-05-09T16:00:39.350Z,28.69
2024-05-09T16:03:14.318Z,27.70
2024-05-09T16:05:45.704Z,26.56
2024-05-09T16:08:15.364Z,26.19
2024-05-09T16:10:45.908Z,26.19
2024-05-09T16:13:14.193Z,25.40
2024-05-09T16:15:41.698Z,25.03
2024-05-09T16:18:09.094Z,24.58
2024-05-09T16:20:40.297Z,24.43
2024-05-09T16:23:10.178Z,24.52
2024-05-09T16:25:37.992Z,24.24
2024-05-09T16:28:09.746Z,24.04
2024-05-09T16:30:41.234Z,23.81
2024-05-09T16:33:09.523Z,23.52
2024-05-09T16:35:37.514Z,22.72
2024-05-09T16:38:06.069Z,22.91
2024-05-09T16:40:38.442Z,22.64
2024-05-09T16:43:09.249Z,23.00
2024-05-09T16:45:38.145Z,23.04
2024-05-09T16:48:06.900Z,23.11
2024-05-09T16:50:35.728Z,22.66
2024-05-09T16:53:05.645Z,22.59
2024-05-09T16:55:34.031Z,22.39
2024-05-09T16:58:02.202Z,22.50
2024-05-09T17:00:39.191Z,22.30
2024-05-09T17:03:11.192Z,22.38
2024-05-09T17:05:39.580Z,22.27
2024-05-09T17:08:07.849Z,21.80
2024-05-09T17:10:36.460Z,21.94
2024-05-09T17:13:06.275Z,22.07
2024-05-09T17:15:35.662Z,22.49
2024-05-09T17:18:04.410Z,22.47
2024-05-09T17:20:35.232Z,22.51
2024-05-09T17:23:13.577Z,22.35
2024-05-09T17:25:41.916Z,22.36
2024-05-09T17:28:09.772Z,22.26
2024-05-09T17:30:39.620Z,22.23
2024-05-09T17:33:09.436Z,21.98
2024-05-09T17:35:37.756Z,22.04
2024-05-09T17:38:06.703Z,21.79
2024-05-09T17:40:36.577Z,21.92
2024-05-09T17:43:07.662Z,21.55
2024-05-09T17:45:40.554Z,21.70
2024-05-09T17:48:10.257Z,21.52
2024-05-09T17:50:38.620Z,21.46
2024-05-09T17:53:07.085Z,21.36
2024-05-09T17:55:34.945Z,21.18
2024-05-09T17:58:02.650Z,21.17
2024-05-09T18:00:37.621Z,21.07
2024-05-09T18:03:10.488Z,20.88
2024-05-09T18:05:38.474Z,20.80
2024-05-09T18:08:09.170Z,20.58
2024-05-09T18:10:39.283Z,20.41
2024-05-09T18:13:11.430Z,20.24
2024-05-09T18:15:39.517Z,20.06
2024-05-09T18:18:07.752Z,19.59
2024-05-09T18:20:42.397Z,19.53
2024-05-09T18:23:15.161Z,19.65
2024-05-09T18:25:43.720Z,19.59
2024-05-09T18:28:11.100Z,19.49
2024-05-09T18:30:39.418Z,19.11
2024-05-09T18:33:08.235Z,19.03
2024-05-09T18:35:36.988Z,19.03
2024-05-09T18:38:05.496Z,19.00
2024-05-09T18:40:36.470Z,18.88
2024-05-09T18:43:07.955Z,18.87
2024-05-09T18:45:39.467Z,18.55
2024-05-09T18:48:09.151Z,18.47
2024-05-09T18:50:39.803Z,18.48
2024-05-09T18:53:12.820Z,18.40
2024-05-09T18:55:42.841Z,18.42
2024-05-09T18:58:10.170Z,18.25
2024-05-09T19:00:40.079Z,18.26
2024-05-09T19:03:12.617Z,18.16
2024-05-09T19:05:43.401Z,18.15
2024-05-09T19:08:12.023Z,18.05
2024-05-09T19:10:40.207Z,18.01
2024-05-09T19:13:12.057Z,17.96
2024-05-09T19:15:41.530Z,17.96
2024-05-09T19:18:10.301Z,17.95
2024-05-09T19:20:38.259Z,17.75
2024-05-09T19:23:06.871Z,17.66
2024-05-09T19:25:35.252Z,17.65
2024-05-09T19:28:03.703Z,17.68
2024-05-09T19:30:38.571Z,17.69
2024-05-09T19:33:10.340Z,17.58
2024-05-09T19:35:38.826Z,17.61
2024-05-09T19:38:06.221Z,17.48
2024-05-09T19:40:35.003Z,17.44
2024-05-09T19:43:04.856Z,17.41
2024-05-09T19:45:34.092Z,17.38
2024-05-09T19:48:02.707Z,17.33
2024-05-09T19:50:37.907Z,17.22
2024-05-09T19:53:11.113Z,17.21
2024-05-09T19:55:38.761Z,17.18
2024-05-09T19:58:07.728Z,17.20
2024-05-09T20:00:38.363Z,17.22
2024-05-09T20:03:08.270Z,17.15
2024-05-09T20:05:36.436Z,17.10
2024-05-09T20:08:04.551Z,17.09
2024-05-09T20:10:34.199Z,17.06
2024-05-09T20:13:03.343Z,16.96
2024-05-09T20:15:31.858Z,16.99
2024-05-09T20:17:59.314Z,16.80
2024-05-09T20:20:33.590Z,16.63
2024-05-09T20:23:06.700Z,16.55
2024-05-09T20:25:33.867Z,16.63
2024-05-09T20:28:01.644Z,16.69
2024-05-09T20:30:57.053Z,16.69
2024-05-09T20:33:24.374Z,16.67
2024-05-09T20:35:51.594Z,16.64
2024-05-09T20:38:18.779Z,16.57
2024-05-09T20:40:46.407Z,16.64
2024-05-09T20:43:13.834Z,16.51
2024-05-09T20:45:41.317Z,16.64
2024-05-09T20:48:09.772Z,16.50
2024-05-09T20:50:40.723Z,16.50
2024-05-09T20:53:12.153Z,16.46
2024-05-09T20:55:40.723Z,16.46
2024-05-09T20:58:09.282Z,16.49
2024-05-09T21:00:40.568Z,16.50
2024-05-09T21:03:11.976Z,16.48
2024-05-09T21:05:40.088Z,16.43
2024-05-09T21:08:07.954Z,16.48
2024-05-09T21:10:36.885Z,16.46
2024-05-09T21:13:05.683Z,16.38
2024-05-09T21:15:33.866Z,16.34
2024-05-09T21:18:01.200Z,16.36
2024-05-09T21:20:31.557Z,16.36
2024-05-09T21:23:00.644Z,16.22
2024-05-09T21:25:27.944Z,16.15
2024-05-09T21:27:55.514Z,16.22
2024-05-09T21:30:32.425Z,16.19
2024-05-09T21:33:13.287Z,16.12
2024-05-09T21:35:42.742Z,16.25
2024-05-09T21:38:10.279Z,16.18
2024-05-09T21:40:38.532Z,16.32
2024-05-09T21:43:07.831Z,16.30
2024-05-09T21:45:36.698Z,16.26
2024-05-09T21:48:04.868Z,16.26
2024-05-09T21:50:39.179Z,16.21
2024-05-09T21:53:08.992Z,16.19
2024-05-09T21:55:36.233Z,16.17
2024-05-09T21:58:03.812Z,16.14
2024-05-09T22:00:36.809Z,16.11
2024-05-09T22:03:08.439Z,16.21
2024-05-09T22:05:36.671Z,16.24
2024-05-09T22:08:04.312Z,16.25
2024-05-09T22:10:34.976Z,16.22
2024-05-09T22:13:08.228Z,16.24
2024-05-09T22:15:37.655Z,16.21
2024-05-09T22:18:06.599Z,16.21
2024-05-09T22:20:37.856Z,16.22
2024-05-09T22:23:07.780Z,16.29
2024-05-09T22:25:35.628Z,16.28
2024-05-09T22:28:03.551Z,16.21
2024-05-09T22:30:36.870Z,16.20
2024-05-09T22:33:11.581Z,16.16
2024-05-09T22:35:40.723Z,16.19
2024-05-09T22:38:08.364Z,16.10
2024-05-09T22:40:46.579Z,16.12
2024-05-09T22:43:24.619Z,16.02
2024-05-09T22:45:55.009Z,16.17
2024-05-09T22:48:24.060Z,16.11
2024-05-09T22:50:52.254Z,16.13
2024-05-09T22:53:19.539Z,16.16
2024-05-09T22:55:46.703Z,16.01
2024-05-09T22:58:13.898Z,15.94
2024-05-09T23:00:41.216Z,15.92
2024-05-09T23:03:08.690Z,16.00
2024-05-09T23:05:36.119Z,15.98
2024-05-09T23:08:03.429Z,16.03
2024-05-09T23:10:36.189Z,16.01
2024-05-09T23:13:06.793Z,16.01
2024-05-09T23:15:34.785Z,15.98
2024-05-09T23:18:02.270Z,16.08
2024-05-09T23:20:36.674Z,16.09
2024-05-09T23:23:07.903Z,16.02
2024-05-09T23:25:35.528Z,15.88
2024-05-09T23:28:03.229Z,15.83
2024-05-09T23:30:37.539Z,15.83
2024-05-09T23:33:13.401Z,15.73
2024-05-09T23:35:42.461Z,15.89
2024-05-09T23:38:09.995Z,15.85
2024-05-09T23:40:40.176Z,15.92
2024-05-09T23:43:09.397Z,15.91
2024-05-09T23:45:37.263Z,15.78
2024-05-09T23:48:05.272Z,15.84
2024-05-09T23:50:36.195Z,15.85
2024-05-09T23:53:07.956Z,15.84
2024-05-09T23:55:36.601Z,15.70
2024-05-09T23:58:04.052Z,15.71
